Cardwell, Missouri
Current Conditions -  °F | °C
As of 10:15 AM on Friday 21 Nov 2014 (Local Time) from K4M9 Reporting Station
Clear Clear  
Wind Chill: 34°   Ceiling: Unl
Heat Index: 41°   Visibility: 10mi
Dew Point: 28°   Wind: 12mph
Humidity: 61%   Direction: 70°ENE
Pressure: 30.39"   Gusts: NA
Location:  36.05°N, 90.29°W
Report Text: K4M9 211615Z AUTO 07010KT 10SM CLR 05/M02 A3039 RMK AO2
Loading
Personal Weather Stations






























Interactive Weather Map New forecast layout! Learn more

10-Day Weather Forecast

Advertisements
Track Severe Weather on mobile